Time;durP1;ratioP1;P1;durP2;ratioP2;P2;SDS_P1;SDS_P2;PMS_P1;PMS_P2;Temp;Humidity;BMP_temperature;BMP_pressure;BME280_temperature;BME280_humidity;BME280_pressure;Samples;Min_cycle;Max_cycle;Signal;HPM_P1;HPM_P2
2022/01/15 00:01:40;;;;;;;1.85;1.00;;;;;;;5.64;36.99;93363.00;4974792;28;20038;-89
2022/01/15 00:04:18;;;;;;;2.75;1.08;;;;;;;5.34;37.10;93326.13;4988497;28;20100;-89
2022/01/15 00:06:56;;;;;;;1.90;1.00;;;;;;;5.21;37.60;93303.84;5011504;28;20037;-89
2022/01/15 00:09:27;;;;;;;2.70;1.50;;;;;;;5.28;38.05;93311.47;4999837;28;20038;-89
2022/01/15 00:12:03;;;;;;;1.85;1.10;;;;;;;5.47;37.79;93345.81;5032052;28;20044;-89
2022/01/15 00:14:36;;;;;;;1.65;1.08;;;;;;;5.41;37.30;93347.53;4999284;28;20116;-88
2022/01/15 00:17:07;;;;;;;2.40;1.10;;;;;;;5.22;36.88;93318.38;4998552;28;20025;-89
2022/01/15 00:19:51;;;;;;;1.38;0.90;;;;;;;5.30;36.21;93328.41;5013362;28;20041;-89
2022/01/15 00:22:22;;;;;;;2.88;1.48;;;;;;;5.14;36.04;93303.19;5012467;28;20416;-89
2022/01/15 00:24:54;;;;;;;2.83;1.20;;;;;;;5.10;35.77;93300.25;5004184;28;20045;-89
2022/01/15 00:27:30;;;;;;;3.28;1.30;;;;;;;5.20;35.72;93310.84;5013026;28;20440;-89
2022/01/15 00:30:03;;;;;;;3.25;1.25;;;;;;;5.38;35.81;93332.41;4970911;28;20057;-89
2022/01/15 00:32:52;;;;;;;3.05;1.30;;;;;;;5.13;35.61;93289.41;4953607;28;20034;-89
2022/01/15 00:35:23;;;;;;;2.15;1.20;;;;;;;5.12;35.71;93292.25;4997008;28;20042;-89
2022/01/15 00:38:02;;;;;;;2.63;1.30;;;;;;;5.23;35.81;93309.59;4981640;28;20426;-89
2022/01/15 00:40:37;;;;;;;2.45;1.13;;;;;;;5.07;35.40;93282.56;5014551;28;20494;-89
2022/01/15 00:43:06;;;;;;;2.40;1.33;;;;;;;5.07;35.15;93279.97;5013068;28;20076;-89
2022/01/15 00:45:50;;;;;;;1.35;0.80;;;;;;;5.15;34.89;93292.56;4997260;28;20493;-89
2022/01/15 00:48:38;;;;;;;2.53;1.25;;;;;;;5.28;34.69;93299.28;4997227;28;20061;-89
2022/01/15 00:51:15;;;;;;;2.03;1.20;;;;;;;5.46;34.83;93326.84;4983136;28;20049;-89
2022/01/15 00:53:49;;;;;;;3.17;1.25;;;;;;;5.32;34.86;93307.41;4984478;28;20041;-89
2022/01/15 00:56:40;;;;;;;3.55;1.25;;;;;;;5.17;34.58;93276.75;5010356;28;20049;-89
2022/01/15 00:59:06;;;;;;;2.20;1.17;;;;;;;5.62;34.82;93341.66;4996944;28;20038;-89
2022/01/15 01:01:44;;;;;;;2.47;1.10;;;;;;;5.24;34.82;93284.41;4996836;28;20061;-89
2022/01/15 01:04:22;;;;;;;1.83;1.00;;;;;;;5.47;34.98;93317.25;4993688;28;20038;-89
2022/01/15 01:07:15;;;;;;;1.98;1.00;;;;;;;5.24;34.66;93281.81;4977547;28;20047;-89
2022/01/15 01:23:26;;;;;;;2.67;1.27;;;;;;;5.39;34.88;93298.44;5010467;28;20061;-89
2022/01/15 01:26:06;;;;;;;4.63;1.55;;;;;;;5.27;35.32;93283.94;4996665;28;20475;-89
2022/01/15 01:28:43;;;;;;;4.57;1.30;;;;;;;5.14;35.21;93261.66;4996713;28;20137;-88
2022/01/15 01:31:22;;;;;;;2.00;1.10;;;;;;;5.15;34.44;93268.41;4996268;28;20272;-89
2022/01/15 01:33:55;;;;;;;2.70;1.10;;;;;;;5.09;35.00;93264.16;5011836;28;20040;-89
2022/01/15 01:39:11;;;;;;;2.60;1.35;;;;;;;5.27;35.27;93304.69;4990848;28;20050;-89
2022/01/15 01:41:41;;;;;;;2.17;1.10;;;;;;;5.35;35.24;93322.50;4965092;28;20522;-88
2022/01/15 01:44:16;;;;;;;2.83;1.20;;;;;;;5.12;35.36;93298.22;4978581;28;20042;-89
2022/01/15 01:47:02;;;;;;;2.65;1.20;;;;;;;5.30;35.18;93319.81;5015341;28;20068;-89
2022/01/15 01:49:41;;;;;;;;;;;;;;;;;;;;;
2022/01/15 01:52:14;;;;;;;3.55;1.20;;;;;;;4.91;35.08;93265.94;5031990;28;20041;-89
2022/01/15 01:54:45;;;;;;;2.53;1.20;;;;;;;4.87;35.05;93266.63;5003447;28;20405;-89
2022/01/15 01:57:20;;;;;;;2.45;1.10;;;;;;;5.11;35.22;93301.84;4996275;28;20119;-88
2022/01/15 01:59:51;;;;;;;2.50;1.10;;;;;;;5.15;34.67;93302.94;4996007;28;20042;-89
2022/01/15 02:02:24;;;;;;;1.05;0.90;;;;;;;5.01;35.01;93270.50;4995352;28;20054;-89
2022/01/15 02:05:03;;;;;;;2.38;1.10;;;;;;;4.93;35.18;93258.72;4996091;28;20691;-89
2022/01/15 02:07:36;;;;;;;1.92;1.00;;;;;;;5.15;35.02;93282.19;4994961;28;20077;-89
2022/01/15 02:10:10;;;;;;;2.67;1.20;;;;;;;4.96;35.53;93257.44;5013983;28;20108;-88
2022/01/15 02:12:57;;;;;;;;;;;;;;;;;;;;;
2022/01/15 02:15:31;;;;;;;1.88;1.10;;;;;;;4.95;35.66;93261.06;5011826;28;20041;-89
2022/01/15 02:18:04;;;;;;;2.28;1.13;;;;;;;4.94;35.44;93251.72;4972129;28;20061;-89
2022/01/15 02:26:37;;;;;;;2.83;1.33;;;;;;;5.13;35.31;93279.03;5007605;28;20552;-89
2022/01/15 02:29:13;;;;;;;2.63;1.23;;;;;;;4.90;35.18;93248.78;4986512;28;20041;-89
2022/01/15 02:31:41;;;;;;;3.03;1.30;;;;;;;4.84;35.65;93238.53;4995777;28;20042;-89
2022/01/15 02:34:09;;;;;;;2.75;1.25;;;;;;;4.85;35.50;93242.72;4978841;28;20390;-88
2022/01/15 02:36:36;;;;;;;3.03;1.20;;;;;;;4.97;35.66;93256.41;4995284;28;20096;-89
2022/01/15 02:39:05;;;;;;;3.78;1.20;;;;;;;5.10;35.52;93274.31;4988587;28;20087;-89
2022/01/15 02:41:50;;;;;;;2.55;1.02;;;;;;;4.91;35.47;93234.00;4995039;28;20073;-89
2022/01/15 02:44:18;;;;;;;1.80;1.10;;;;;;;5.18;35.36;93276.53;4995038;28;20038;-89
2022/01/15 02:49:29;;;;;;;1.85;1.17;;;;;;;4.86;36.18;93216.53;4994468;28;20076;-89
2022/01/15 02:51:55;;;;;;;2.00;1.02;;;;;;;5.05;36.08;93250.88;4994793;28;20037;-89
2022/01/15 02:54:29;;;;;;;5.07;1.10;;;;;;;4.89;36.14;93228.28;4993688;28;20033;-89
2022/01/15 02:57:06;;;;;;;1.65;1.05;;;;;;;4.79;36.53;93210.69;5007359;28;20069;-89
2022/01/15 02:59:39;;;;;;;2.20;0.77;;;;;;;5.11;36.86;93262.91;4978773;28;20042;-89
2022/01/15 03:02:10;;;;;;;1.48;0.98;;;;;;;4.85;36.68;93209.00;4956481;28;20069;-89
2022/01/15 03:04:45;;;;;;;1.25;0.80;;;;;;;5.09;36.45;93246.78;4973284;28;20046;-89
2022/01/15 03:07:30;;;;;;;2.70;1.17;;;;;;;5.10;36.49;93240.56;4989632;28;20041;-89
2022/01/15 03:10:08;;;;;;;3.50;1.45;;;;;;;4.92;36.56;93204.44;4976798;28;20134;-89
2022/01/15 03:12:46;;;;;;;2.45;1.20;;;;;;;4.92;36.08;93196.66;4976272;28;20034;-88
2022/01/15 03:15:28;;;;;;;3.42;1.27;;;;;;;5.14;36.20;93226.09;4976333;28;20061;-89
2022/01/15 03:18:01;;;;;;;2.85;1.40;;;;;;;4.92;36.22;93183.69;4976304;28;20053;-89
2022/01/15 03:20:47;;;;;;;1.77;1.02;;;;;;;4.90;36.18;93186.50;4975688;28;20049;-89
2022/01/15 03:23:15;;;;;;;4.55;1.10;;;;;;;5.11;36.36;93215.41;4975397;28;20097;-88
2022/01/15 03:25:43;;;;;;;2.30;1.10;;;;;;;4.84;37.08;93168.50;4974413;28;20030;-88
2022/01/15 03:28:24;;;;;;;1.88;1.10;;;;;;;5.15;37.50;93214.69;4975800;28;20038;-88
2022/01/15 03:30:57;;;;;;;2.45;1.17;;;;;;;5.09;37.34;93213.06;4975751;28;20077;-89
2022/01/15 03:33:25;;;;;;;1.83;1.15;;;;;;;4.89;36.92;93179.75;5007199;28;20073;-89
2022/01/15 03:35:55;;;;;;;3.75;1.10;;;;;;;4.82;36.79;93163.56;4990968;28;20117;-89
2022/01/15 03:38:26;;;;;;;2.42;1.23;;;;;;;4.77;36.90;93161.66;4975162;28;20038;-89
2022/01/15 03:41:14;;;;;;;2.35;1.08;;;;;;;5.04;37.10;93199.97;4977189;28;20050;-89
2022/01/15 03:43:52;;;;;;;1.67;1.00;;;;;;;4.82;36.81;93157.56;4991752;28;20125;-89
2022/01/15 03:46:36;;;;;;;1.65;0.95;;;;;;;5.07;37.54;93196.16;4946401;28;20500;-89
2022/01/15 03:49:04;;;;;;;1.58;0.90;;;;;;;4.74;37.01;93140.59;5000801;28;20042;-89
2022/01/15 03:51:37;;;;;;;1.95;0.85;;;;;;;4.98;36.88;93177.56;4974419;28;20054;-89
2022/01/15 03:54:16;;;;;;;2.28;1.10;;;;;;;4.77;37.23;93146.09;4991870;28;20040;-89
2022/01/15 03:56:49;;;;;;;3.17;1.20;;;;;;;4.97;36.58;93165.59;4975529;28;20030;-88
2022/01/15 03:59:17;;;;;;;2.08;0.93;;;;;;;4.77;36.70;93146.09;4985849;28;20034;-89
2022/01/15 04:01:49;;;;;;;1.80;1.00;;;;;;;4.76;37.36;93138.56;4988204;28;20053;-89
2022/01/15 04:04:25;;;;;;;2.05;1.20;;;;;;;5.00;37.22;93175.53;5013593;28;20393;-89
2022/01/15 04:06:56;;;;;;;2.15;0.98;;;;;;;4.74;37.44;93136.19;5013248;28;20061;-89
2022/01/15 04:09:29;;;;;;;1.95;1.13;;;;;;;4.66;38.06;93128.00;5007680;28;20042;-89
2022/01/15 04:12:16;;;;;;;1.33;0.77;;;;;;;4.62;38.18;93125.09;5008018;28;20142;-89
2022/01/15 04:14:42;;;;;;;1.65;1.02;;;;;;;4.66;37.95;93130.59;4993586;28;20034;-89
2022/01/15 04:17:08;;;;;;;1.52;0.90;;;;;;;4.92;38.38;93162.94;4993353;28;20064;-89
2022/01/15 04:19:43;;;;;;;1.45;1.00;;;;;;;5.05;38.65;93188.59;5011476;28;21782;-89
2022/01/15 04:22:17;;;;;;;2.25;0.98;;;;;;;4.93;38.77;93159.31;4975279;28;20042;-88
2022/01/15 04:24:47;;;;;;;1.42;0.88;;;;;;;4.69;38.56;93117.94;5006928;28;20395;-89
2022/01/15 04:27:15;;;;;;;2.08;1.00;;;;;;;4.95;38.75;93147.69;4974256;28;20042;-89
2022/01/15 04:29:43;;;;;;;1.63;0.85;;;;;;;4.68;38.37;93116.34;4973655;28;20030;-89
2022/01/15 04:32:19;;;;;;;1.70;0.90;;;;;;;4.71;38.50;93121.09;5013145;28;20042;-88
2022/01/15 04:34:55;;;;;;;;;;;;;;;;;;;;;
2022/01/15 04:37:31;;;;;;;0.93;0.70;;;;;;;4.65;39.07;93121.25;5026407;28;20033;-89
2022/01/15 04:40:04;;;;;;;2.33;1.10;;;;;;;4.66;39.23;93118.41;4979737;28;20030;-89
2022/01/15 04:42:42;;;;;;;0.93;0.70;;;;;;;4.69;39.34;93128.31;4992861;28;20093;-89
2022/01/15 04:45:34;;;;;;;1.40;0.70;;;;;;;4.71;39.32;93121.09;4994385;28;20276;-89
2022/01/15 04:48:07;;;;;;;1.95;1.00;;;;;;;4.98;39.31;93167.97;4992927;28;20432;-89
2022/01/15 04:50:58;;;;;;;2.15;0.80;;;;;;;4.88;39.83;93141.06;4993390;28;20066;-89
2022/01/15 04:53:27;;;;;;;1.17;0.80;;;;;;;4.74;39.64;93120.63;4980904;28;20042;-89
2022/01/15 04:55:55;;;;;;;2.88;1.13;;;;;;;5.15;39.13;93175.75;4977001;28;20456;-89
2022/01/15 04:58:32;;;;;;;0.60;0.60;;;;;;;4.82;39.28;93121.25;4993144;28;20042;-89
2022/01/15 05:01:01;;;;;;;2.28;1.00;;;;;;;4.98;38.82;93149.03;4976903;28;20045;-89
2022/01/15 05:03:26;;;;;;;1.08;0.68;;;;;;;5.00;39.24;93150.38;4962157;28;20096;-89
2022/01/15 05:06:15;;;;;;;1.35;0.80;;;;;;;4.83;38.96;93117.66;4966005;28;20034;-88
2022/01/15 05:08:47;;;;;;;1.05;0.80;;;;;;;4.75;39.10;93111.84;4961337;28;20053;-88
2022/01/15 05:11:28;;;;;;;2.03;1.20;;;;;;;4.76;39.06;93112.59;4993231;28;20052;-88
2022/01/15 05:13:56;;;;;;;1.15;0.70;;;;;;;4.96;39.25;93143.28;4977203;28;20042;-89
2022/01/15 05:16:36;;;;;;;;;;;;;;;;;;;;;
2022/01/15 05:19:06;;;;;;;3.85;1.33;;;;;;;4.84;39.71;93127.00;4998650;28;20066;-89
2022/01/15 05:21:36;;;;;;;2.35;1.25;;;;;;;4.68;39.64;93105.97;4980566;28;20030;-89
2022/01/15 05:24:07;;;;;;;1.38;0.73;;;;;;;4.64;39.71;93104.91;4997153;28;20113;-89
2022/01/15 05:26:46;;;;;;;2.67;1.13;;;;;;;4.89;39.89;93153.03;4980895;28;20038;-88
2022/01/15 05:29:19;;;;;;;1.48;0.90;;;;;;;4.85;40.15;93151.94;5013047;28;20052;-89
2022/01/15 05:31:53;;;;;;;0.90;0.73;;;;;;;4.75;40.18;93145.53;4995197;28;20050;-89
2022/01/15 05:34:24;;;;;;;5.18;1.00;;;;;;;4.56;40.13;93113.06;4997280;28;20041;-88
2022/01/15 05:36:52;;;;;;;0.88;0.63;;;;;;;4.52;40.20;93102.34;4996270;28;20034;-89
2022/01/15 05:39:49;;;;;;;1.98;1.08;;;;;;;5.05;39.49;93183.41;5012525;28;20042;-88
2022/01/15 05:42:46;;;;;;;1.65;1.00;;;;;;;4.70;39.32;93124.69;5015411;28;20029;-89
2022/01/15 05:45:21;;;;;;;1.30;0.80;;;;;;;4.74;39.44;93114.66;5004302;28;20074;-89
2022/01/15 05:47:52;;;;;;;1.27;0.65;;;;;;;4.69;39.13;93099.78;5008960;28;20125;-89
2022/01/15 05:50:25;;;;;;;1.33;0.80;;;;;;;5.03;38.98;93148.31;4996305;28;20049;-90
2022/01/15 05:53:06;;;;;;;;;;;;;;;;;;;;;
2022/01/15 05:55:43;;;;;;;3.33;0.98;;;;;;;4.89;38.62;93116.72;4981510;28;20054;-89
2022/01/15 05:58:19;;;;;;;0.60;0.50;;;;;;;4.83;39.01;93107.28;4981551;28;20038;-89
2022/01/15 06:00:52;;;;;;;2.38;1.08;;;;;;;4.87;39.11;93108.38;4995363;28;20699;-90
2022/01/15 06:03:27;;;;;;;2.17;1.00;;;;;;;4.82;39.58;93109.09;5015499;28;20103;-88
2022/01/15 06:05:56;;;;;;;3.78;1.00;;;;;;;4.78;39.43;93111.34;4994563;28;20096;-89
2022/01/15 06:08:23;;;;;;;1.98;0.98;;;;;;;4.90;39.59;93123.47;5015584;28;20120;-89
2022/01/15 06:11:17;;;;;;;;;;;;;;;;;;;;;
2022/01/15 06:13:59;;;;;;;4.18;0.80;;;;;;;5.01;39.79;93145.97;5009410;28;20046;-88
2022/01/15 06:16:33;;;;;;;1.17;0.75;;;;;;;5.00;39.48;93145.19;4978269;28;20057;-89
2022/01/15 06:35:42;;;;;;;1.58;0.90;;;;;;;5.22;39.78;93173.00;5016173;28;20107;-90
2022/01/15 06:58:49;;;;;;;0.95;0.70;;;;;;;5.23;40.13;93177.19;5015415;28;20045;-90
2022/01/15 07:01:49;;;;;;;0.80;0.70;;;;;;;5.19;40.20;93169.09;5013301;28;20068;-90
2022/01/15 07:25:21;;;;;;;2.30;0.80;;;;;;;5.25;40.72;93193.31;5014759;28;20505;-90
2022/01/15 07:27:47;;;;;;;1.13;0.85;;;;;;;6.76;38.24;93170.59;4997037;28;20042;-91
2022/01/15 07:30:14;;;;;;;1.33;0.90;;;;;;;9.69;33.84;93183.94;4997384;28;20477;-90
2022/01/15 07:32:40;;;;;;;2.05;1.10;;;;;;;12.02;30.35;93178.03;4965077;28;20125;-92
2022/01/15 07:35:08;;;;;;;1.15;0.90;;;;;;;13.73;26.76;93155.31;4997632;28;20481;-91
2022/01/15 07:37:35;;;;;;;3.53;1.20;;;;;;;15.45;24.25;93177.81;5007742;28;20201;-96
2022/01/15 07:40:04;;;;;;;1.33;0.90;;;;;;;16.75;22.97;93169.00;4999981;28;20034;-91
2022/01/15 07:43:30;;;;;;;1.67;1.00;;;;;;;17.98;20.90;93129.03;4993307;28;20070;-92
2022/01/15 07:46:21;;;;;;;1.38;0.90;;;;;;;19.19;19.81;93128.78;5005999;28;20053;-91
2022/01/15 07:52:04;;;;;;;4.43;1.10;;;;;;;21.19;17.74;93121.28;4973688;28;20325;-92
2022/01/15 07:54:58;;;;;;;1.30;0.98;;;;;;;22.23;17.22;93134.75;4999654;28;20050;-90
2022/01/15 07:57:43;;;;;;;1.73;0.80;;;;;;;23.11;16.19;93117.75;4996189;28;20041;-91
2022/01/15 08:00:48;;;;;;;1.38;0.80;;;;;;;23.86;15.20;93125.34;4975748;28;20070;-91
2022/01/15 08:03:45;;;;;;;2.70;1.20;;;;;;;24.87;14.60;93122.47;4984174;28;20481;-91
2022/01/15 08:06:42;;;;;;;;;;;;;;;;;;;;;
2022/01/15 08:09:32;;;;;;;1.10;0.80;;;;;;;26.53;13.58;93157.44;4993882;28;20057;-91
2022/01/15 08:12:19;;;;;;;2.45;1.00;;;;;;;27.34;12.94;93161.91;4992300;28;20125;-91
2022/01/15 08:18:31;;;;;;;2.58;1.10;;;;;;;28.51;12.46;93127.00;5017129;28;19919;-91
2022/01/15 08:21:20;;;;;;;1.98;1.10;;;;;;;29.19;11.81;93133.13;5013611;28;20046;-91
2022/01/15 08:23:48;;;;;;;2.00;1.20;;;;;;;28.98;11.29;93133.91;5015803;28;20037;-92
2022/01/15 08:26:21;;;;;;;4.05;1.77;;;;;;;28.61;11.40;93147.75;5002969;28;20517;-91
2022/01/15 08:29:14;;;;;;;;;;;;;;;;;;;;;
2022/01/15 08:31:56;;;;;;;1.98;1.25;;;;;;;29.21;10.69;93128.13;4996442;28;20494;-91
2022/01/15 08:34:45;;;;;;;;;;;;;;;;;;;;;
2022/01/15 08:37:31;;;;;;;2.28;1.30;;;;;;;29.91;10.17;93165.31;5027008;28;20045;-92
2022/01/15 08:40:43;;;;;;;2.58;1.30;;;;;;;30.53;10.13;93192.81;4977767;28;20030;-91
2022/01/15 08:43:21;;;;;;;;;;;;;;;;;;;;;
2022/01/15 08:45:51;;;;;;;3.17;1.60;;;;;;;31.22;9.80;93154.06;5005935;28;20034;-93
2022/01/15 08:49:00;;;;;;;3.13;1.60;;;;;;;31.34;9.45;93185.25;5020074;28;20120;-91
2022/01/15 08:51:51;;;;;;;4.68;1.60;;;;;;;31.63;9.22;93195.81;5033791;28;20049;-92
2022/01/15 08:54:29;;;;;;;2.70;1.50;;;;;;;30.48;10.13;93154.25;4989476;28;20128;-92
2022/01/15 09:03:57;;;;;;;4.32;1.95;;;;;;;28.56;11.04;93151.59;5017533;28;20050;-91
2022/01/15 09:06:39;;;;;;;3.00;1.52;;;;;;;27.98;11.04;93185.66;5002245;28;20046;-92
2022/01/15 09:09:24;;;;;;;4.30;1.60;;;;;;;27.30;11.63;93163.81;4999271;28;20113;-91
2022/01/15 09:12:09;;;;;;;2.08;1.20;;;;;;;27.04;11.83;93186.25;5017129;28;20045;-90
2022/01/15 09:14:49;;;;;;;2.90;1.50;;;;;;;25.98;13.37;93155.34;5017180;28;20097;-93
2022/01/15 09:17:25;;;;;;;4.80;1.40;;;;;;;23.42;15.08;93171.06;4999664;28;20045;-91
2022/01/15 09:20:10;;;;;;;4.00;1.60;;;;;;;21.78;16.56;93195.25;4992179;28;20556;-92
2022/01/15 09:23:01;;;;;;;4.20;1.60;;;;;;;21.25;17.46;93234.38;5025197;28;20548;-91
2022/01/15 09:25:53;;;;;;;2.58;1.33;;;;;;;20.43;17.26;93213.91;5016911;28;20526;-93
2022/01/15 09:31:58;;;;;;;3.00;1.20;;;;;;;19.06;19.08;93212.81;5007081;28;20134;-92
2022/01/15 09:34:50;;;;;;;;;;;;;;;;;;;;;
2022/01/15 09:37:46;;;;;;;3.63;1.60;;;;;;;19.42;18.91;93251.34;5000912;28;20038;-90
2022/01/15 09:40:29;;;;;;;4.30;1.90;;;;;;;18.46;18.84;93223.38;4998501;28;20046;-91
2022/01/15 09:43:10;;;;;;;4.03;1.30;;;;;;;17.87;19.29;93186.84;5015956;28;20046;-92
2022/01/15 09:45:43;;;;;;;5.22;1.70;;;;;;;17.31;20.53;93191.19;4983712;28;20065;-90
2022/01/15 09:48:33;;;;;;;2.28;1.10;;;;;;;17.68;19.42;93189.81;5001731;28;20065;-91
2022/01/15 09:51:14;;;;;;;3.33;1.60;;;;;;;17.56;19.43;93212.69;4996273;28;20038;-90
2022/01/15 09:53:46;;;;;;;2.53;1.30;;;;;;;17.72;20.02;93228.91;4997046;28;20125;-90
2022/01/15 09:56:51;;;;;;;5.00;1.70;;;;;;;17.71;20.69;93198.22;4994938;28;20038;-90
2022/01/15 09:59:53;;;;;;;2.88;1.52;;;;;;;17.52;20.47;93217.84;5014974;28;20045;-90
2022/01/15 10:02:21;;;;;;;4.05;1.48;;;;;;;16.55;20.81;93229.28;4994167;28;20058;-90
2022/01/15 10:05:22;;;;;;;4.50;1.90;;;;;;;15.95;22.45;93259.53;4978887;28;20124;-89
2022/01/15 10:08:00;;;;;;;3.70;1.63;;;;;;;16.23;22.23;93232.97;4995633;28;20060;-87
2022/01/15 10:10:27;;;;;;;6.95;1.40;;;;;;;16.76;21.58;93261.22;4997565;28;20034;-88
2022/01/15 10:12:53;;;;;;;3.30;1.52;;;;;;;16.47;21.88;93260.94;4998142;28;20026;-87
2022/01/15 10:15:20;;;;;;;3.90;1.63;;;;;;;16.90;21.99;93261.16;4998152;28;20048;-88
2022/01/15 10:17:45;;;;;;;2.28;1.20;;;;;;;17.08;20.96;93261.97;4964276;28;20101;-88
2022/01/15 10:20:18;;;;;;;3.92;1.52;;;;;;;16.60;21.31;93268.00;4978402;28;20038;-86
2022/01/15 10:22:51;;;;;;;2.58;1.50;;;;;;;16.58;20.73;93265.66;4962477;28;20038;-89
2022/01/15 10:25:52;;;;;;;3.13;1.45;;;;;;;16.63;20.88;93262.09;4978486;28;20066;-89
2022/01/15 10:32:17;;;;;;;1.88;1.10;;;;;;;16.54;20.66;93258.63;4997341;28;20061;-90
2022/01/15 10:38:52;;;;;;;3.97;1.50;;;;;;;15.95;22.84;93259.53;4996257;28;20138;-89
2022/01/15 10:45:47;;;;;;;3.53;1.40;;;;;;;15.17;23.31;93249.06;4996231;28;20049;-89
2022/01/15 10:52:18;;;;;;;2.53;1.33;;;;;;;14.61;24.24;93255.44;4996038;28;20584;-91
2022/01/15 10:54:51;;;;;;;4.72;1.02;;;;;;;14.05;23.71;93243.22;4978321;28;20043;-91
2022/01/15 10:57:24;;;;;;;2.53;1.17;;;;;;;13.70;24.25;93243.50;4977759;28;20046;-90
2022/01/15 11:00:05;;;;;;;4.05;1.48;;;;;;;13.64;24.85;93230.72;4962242;28;20050;-89
2022/01/15 11:02:34;;;;;;;5.95;1.52;;;;;;;14.17;24.59;93219.88;5015877;28;20050;-90
2022/01/15 11:05:00;;;;;;;4.65;1.90;;;;;;;14.38;24.54;93239.47;5000868;28;20559;-90
2022/01/15 11:07:32;;;;;;;6.30;2.47;;;;;;;13.73;24.56;93206.13;5001677;28;20034;-91
2022/01/15 11:10:20;;;;;;;;;;;;;;;;;;;;;
2022/01/15 11:16:43;;;;;;;4.78;2.13;;;;;;;14.28;24.75;93157.28;5019038;28;20076;-91
2022/01/15 11:19:32;;;;;;;;;;;;;;;;;;;;;
2022/01/15 11:22:16;;;;;;;;;;;;;;;;;;;;;
2022/01/15 11:25:26;;;;;;;;;;;;;;;;;;;;;
2022/01/15 11:28:39;;;;;;;5.00;2.15;;;;;;;15.05;24.22;93217.16;5018974;28;20076;-91
2022/01/15 11:35:45;;;;;;;;;;;;;;;;;;;;;
2022/01/15 11:42:38;;;;;;;;;;;;;;;;;;;;;
2022/01/15 11:46:17;;;;;;;;;;;;;;;;;;;;;
2022/01/15 11:49:21;;;;;;;;;;;;;;;;;;;;;
2022/01/15 11:55:43;;;;;;;6.38;2.50;;;;;;;14.59;25.74;93181.22;4967030;28;20056;-91
2022/01/15 11:58:13;;;;;;;4.35;1.98;;;;;;;13.93;24.60;93196.31;4961321;28;20480;-91
2022/01/15 12:00:45;;;;;;;6.25;2.38;;;;;;;14.15;24.83;93185.13;4961252;28;20121;-91
2022/01/15 12:03:12;;;;;;;5.47;2.55;;;;;;;14.46;25.01;93187.22;4966710;28;20054;-91
2022/01/15 12:05:41;;;;;;;4.65;2.00;;;;;;;14.40;25.37;93196.28;4961071;28;20042;-91
2022/01/15 12:08:08;;;;;;;8.50;3.85;;;;;;;14.73;24.96;93200.41;4993193;28;20093;-90
2022/01/15 12:10:49;;;;;;;4.50;2.15;;;;;;;14.57;24.05;93189.41;4993297;28;20041;-91
2022/01/15 12:13:29;;;;;;;5.95;2.42;;;;;;;14.34;25.84;93185.84;4994275;28;20034;-91
2022/01/15 12:16:24;;;;;;;6.43;2.75;;;;;;;13.94;26.16;93138.13;4992480;28;20061;-91
2022/01/15 12:18:52;;;;;;;7.15;3.03;;;;;;;14.27;25.98;93135.41;4996235;28;20030;-91
2022/01/15 12:26:06;;;;;;;7.70;3.15;;;;;;;14.28;26.16;93183.59;4969462;28;20093;-91
2022/01/15 12:28:32;;;;;;;;;;;;;;;14.08;26.09;93187.38;5000239;28;20502;-91
2022/01/15 12:30:58;;;;;;;10.30;3.72;;;;;;;14.05;26.25;93190.56;4984172;28;19917;-91
2022/01/15 12:33:33;;;;;;;16.88;4.35;;;;;;;14.21;26.13;93186.63;5001040;28;20141;-91
2022/01/15 12:36:27;;;;;;;11.80;4.72;;;;;;;13.98;25.88;93132.25;4953572;28;20053;-92
2022/01/15 12:39:00;;;;;;;9.20;4.05;;;;;;;14.16;25.79;93137.47;4996922;28;20047;-91
2022/01/15 12:41:54;;;;;;;9.02;4.03;;;;;;;14.31;24.61;93130.34;4997781;28;20112;-91
2022/01/15 12:48:10;;;;;;;10.32;4.35;;;;;;;14.92;24.58;93171.28;5035716;28;20132;-91
2022/01/15 12:50:49;;;;;;;11.63;5.25;;;;;;;14.85;24.92;93170.13;5016062;28;20125;-91
2022/01/15 12:56:39;;;;;;;9.55;3.72;;;;;;;13.95;25.46;93165.22;4999796;28;20061;-92
2022/01/15 12:59:05;;;;;;;13.25;5.53;;;;;;;13.83;26.54;93163.06;4999558;28;20034;-92
2022/01/15 13:01:31;;;;;;;13.73;4.28;;;;;;;13.47;26.65;93128.66;4994678;28;20137;-91
2022/01/15 13:03:57;;;;;;;15.65;6.00;;;;;;;14.11;26.59;93171.75;5001112;28;20144;-91
2022/01/15 13:06:26;;;;;;;16.58;6.13;;;;;;;13.79;26.92;93161.28;5015732;28;20562;-92
2022/01/15 13:08:55;;;;;;;22.27;6.25;;;;;;;14.10;26.47;93135.22;4999024;28;20368;-91
2022/01/15 13:11:23;;;;;;;12.60;6.13;;;;;;;13.78;25.86;93126.31;4965042;28;20065;-91
2022/01/15 13:13:54;;;;;;;13.30;5.65;;;;;;;14.10;25.63;93164.19;4996103;28;20040;-92
2022/01/15 13:16:23;;;;;;;15.35;6.30;;;;;;;14.07;26.24;93162.09;4996178;28;20034;-92
2022/01/15 13:18:54;;;;;;;13.65;6.07;;;;;;;14.03;25.38;93150.63;4979352;28;20137;-91
2022/01/15 13:21:26;;;;;;;12.52;5.57;;;;;;;13.70;24.99;93134.84;4978228;28;20040;-91
2022/01/15 13:23:58;;;;;;;11.75;5.70;;;;;;;13.81;25.69;93138.88;5029756;28;20109;-92
2022/01/15 13:26:27;;;;;;;14.90;6.32;;;;;;;13.58;26.53;93160.81;4998051;28;20114;-90
2022/01/15 13:29:00;;;;;;;11.90;5.57;;;;;;;13.64;24.97;93105.22;4981466;28;20034;-90
2022/01/15 13:31:30;;;;;;;16.95;6.18;;;;;;;13.74;25.79;93159.53;4997905;28;20038;-91
2022/01/15 13:34:17;;;;;;;16.13;6.30;;;;;;;13.89;25.38;93145.31;4987507;28;20041;-91
2022/01/15 13:36:46;;;;;;;19.30;5.78;;;;;;;13.66;25.01;93153.06;5034068;28;20033;-92
2022/01/15 13:39:19;;;;;;;12.25;5.10;;;;;;;13.50;25.29;93157.00;5017545;28;20116;-92
2022/01/15 13:42:09;;;;;;;16.08;5.38;;;;;;;13.57;24.88;93104.03;5021517;28;20041;-92
2022/01/15 13:44:51;;;;;;;16.13;5.85;;;;;;;12.87;25.42;93090.63;4981100;28;20072;-92
2022/01/15 13:47:43;;;;;;;10.10;4.13;;;;;;;13.38;24.57;93133.81;4984159;28;20068;-93
2022/01/15 13:54:01;;;;;;;;;;;;;;;;;;;;;
2022/01/15 13:56:56;;;;;;;14.77;6.03;;;;;;;13.21;24.60;93089.59;5003750;28;20471;-92
2022/01/15 14:00:09;;;;;;;;;;;;;;;;;;;;;
2022/01/15 14:03:01;;;;;;;13.88;5.22;;;;;;;13.32;22.93;93082.34;5001033;28;20038;-92
2022/01/15 14:05:58;;;;;;;13.07;5.03;;;;;;;13.15;22.79;93087.31;4996078;28;20487;-92
2022/01/15 14:08:29;;;;;;;12.00;4.85;;;;;;;13.43;23.37;93089.00;5012826;28;20169;-92
2022/01/15 14:11:27;;;;;;;12.32;5.47;;;;;;;13.08;23.25;93080.59;5011123;28;20140;-91
2022/01/15 14:14:22;;;;;;;;;;;;;;;;;;;;;
2022/01/15 14:17:17;;;;;;;;;;;;;;;;;;;;;
2022/01/15 14:23:12;;;;;;;;;;;;;;;;;;;;;
2022/01/15 14:26:08;;;;;;;10.20;4.65;;;;;;;13.21;23.27;93086.19;5002789;28;20042;-91
2022/01/15 14:29:05;;;;;;;11.98;5.03;;;;;;;12.68;24.59;93090.63;4962935;28;20049;-91
2022/01/15 14:31:39;;;;;;;13.77;5.18;;;;;;;13.48;24.39;93083.66;4968864;28;20061;-90
2022/01/15 14:34:08;;;;;;;11.50;5.32;;;;;;;14.19;23.41;93091.34;5015797;28;20052;-90
2022/01/15 14:37:09;;;;;;;;;;;;;;;;;;;;;
2022/01/15 14:39:45;;;;;;;11.60;4.43;;;;;;;14.88;22.17;93090.47;4997449;28;20037;-92
2022/01/15 14:42:29;;;;;;;13.75;4.90;;;;;;;15.32;22.98;93120.59;5015377;28;20128;-91
2022/01/15 14:45:27;;;;;;;;;;;;;;;;;;;;;
2022/01/15 14:48:22;;;;;;;10.30;4.63;;;;;;;15.82;21.72;93102.75;5014834;28;20038;-91
2022/01/15 14:50:57;;;;;;;10.60;4.13;;;;;;;15.50;21.28;93077.41;5011842;28;20041;-91
2022/01/15 14:53:42;;;;;;;12.10;4.90;;;;;;;15.71;20.74;93064.50;4982338;28;20085;-93
2022/01/15 14:56:19;;;;;;;13.13;5.18;;;;;;;15.86;20.75;93100.31;5011416;28;20135;-92
2022/01/15 14:59:16;;;;;;;13.68;5.43;;;;;;;15.94;21.58;93075.00;5032388;28;20026;-91
2022/01/15 15:02:19;;;;;;;9.13;4.68;;;;;;;16.20;21.48;93133.22;4996353;28;20495;-92
2022/01/15 15:08:44;;;;;;;10.85;4.95;;;;;;;15.86;21.25;93081.81;4992202;28;20133;-91
2022/01/15 15:11:46;;;;;;;12.90;5.43;;;;;;;15.54;22.06;93112.69;4979256;28;20116;-91
2022/01/15 15:14:58;;;;;;;;;;;;;;;;;;;;;
2022/01/15 15:17:57;;;;;;;13.98;5.50;;;;;;;14.00;23.50;93074.84;4994919;28;20041;-92
2022/01/15 15:20:33;;;;;;;14.68;4.60;;;;;;;13.50;25.50;93101.78;4981397;28;20110;-91
2022/01/15 15:23:17;;;;;;;;;;;;;;;;;;;;;
2022/01/15 15:26:00;;;;;;;;;;;;;;;;;;;;;
2022/01/15 15:29:05;;;;;;;9.13;4.63;;;;;;;12.08;27.54;93082.47;4999128;28;20039;-92
2022/01/15 15:32:12;;;;;;;10.45;5.00;;;;;;;12.18;27.79;93147.97;4994061;28;20042;-90
2022/01/15 15:34:43;;;;;;;14.50;5.25;;;;;;;11.43;27.48;93070.50;4968006;28;20125;-90
2022/01/15 15:37:46;;;;;;;;;;;;;;;;;;;;;
2022/01/15 15:40:47;;;;;;;12.73;5.40;;;;;;;11.19;29.06;93124.69;5008731;28;20041;-90
2022/01/15 15:43:36;;;;;;;;;;;;;;;;;;;;;
2022/01/15 15:46:19;;;;;;;12.75;5.93;;;;;;;10.71;30.34;93129.72;4992761;28;20130;-92
2022/01/15 15:49:00;;;;;;;13.57;6.00;;;;;;;10.23;30.61;93083.09;4976648;28;20097;-91
2022/01/15 15:51:39;;;;;;;18.30;6.10;;;;;;;10.06;30.33;93086.03;4978173;28;20383;-93